createdAt,value
2022-11-29T00:00:02.734Z,21.06
2022-11-29T00:02:30.376Z,21.00
2022-11-29T00:04:57.366Z,20.94
2022-11-29T00:07:24.328Z,20.94
2022-11-29T00:09:51.285Z,20.88
2022-11-29T00:12:18.196Z,20.88
2022-11-29T00:14:45.259Z,20.81
2022-11-29T00:17:12.340Z,20.81
2022-11-29T00:19:39.267Z,20.81
2022-11-29T00:22:06.219Z,20.75
2022-11-29T00:24:33.178Z,20.75
2022-11-29T00:27:00.075Z,20.69
2022-11-29T00:29:27.019Z,20.63
2022-11-29T00:31:53.905Z,20.63
2022-11-29T00:34:20.810Z,20.56
2022-11-29T00:36:47.738Z,20.56
2022-11-29T00:39:14.646Z,20.56
2022-11-29T00:41:41.567Z,20.50
2022-11-29T00:44:08.498Z,20.50
2022-11-29T00:46:35.402Z,20.44
2022-11-29T00:49:02.359Z,20.44
2022-11-29T00:51:29.258Z,20.44
2022-11-29T00:53:56.169Z,20.38
2022-11-29T00:56:23.082Z,20.38
2022-11-29T00:58:50.047Z,20.31
2022-11-29T01:01:17.041Z,20.31
2022-11-29T01:03:44.019Z,20.31
2022-11-29T01:06:10.941Z,20.25
2022-11-29T01:08:37.855Z,20.25
2022-11-29T01:11:04.761Z,20.19
2022-11-29T01:13:31.712Z,20.19
2022-11-29T01:15:58.604Z,20.19
2022-11-29T01:18:25.522Z,20.13
2022-11-29T01:20:52.422Z,20.13
2022-11-29T01:23:19.329Z,20.06
2022-11-29T01:25:46.249Z,20.06
2022-11-29T01:28:13.165Z,20.06
2022-11-29T01:30:40.131Z,20.00
2022-11-29T01:33:07.050Z,20.00
2022-11-29T01:35:33.967Z,20.00
2022-11-29T01:38:00.869Z,19.94
2022-11-29T01:40:27.793Z,19.94
2022-11-29T01:42:54.692Z,19.94
2022-11-29T01:45:21.596Z,19.88
2022-11-29T01:47:48.511Z,19.88
2022-11-29T01:50:15.436Z,19.88
2022-11-29T01:52:42.349Z,19.81
2022-11-29T01:55:09.258Z,19.81
2022-11-29T01:57:36.384Z,19.81
2022-11-29T02:00:03.311Z,19.75
2022-11-29T02:02:30.295Z,19.75
2022-11-29T02:04:57.236Z,19.75
2022-11-29T02:07:24.161Z,19.69
2022-11-29T02:09:51.111Z,19.69
2022-11-29T02:12:18.034Z,19.69
2022-11-29T02:14:45.233Z,19.69
2022-11-29T02:17:12.314Z,19.63
2022-11-29T02:19:39.222Z,19.63
2022-11-29T02:22:06.151Z,19.63
2022-11-29T02:24:33.070Z,19.56
2022-11-29T02:26:59.988Z,19.56
2022-11-29T02:29:26.897Z,19.56
2022-11-29T02:31:53.886Z,19.50
2022-11-29T02:34:20.789Z,19.50
2022-11-29T02:36:47.727Z,19.50
2022-11-29T02:39:14.767Z,19.50
2022-11-29T02:41:41.703Z,19.50
2022-11-29T02:44:08.611Z,19.44
2022-11-29T02:46:35.552Z,19.44
2022-11-29T02:49:02.518Z,19.44
2022-11-29T02:51:29.467Z,19.44
2022-11-29T02:53:56.360Z,19.38
2022-11-29T02:56:23.283Z,19.38
2022-11-29T02:58:50.176Z,19.38
2022-11-29T03:01:17.092Z,19.31
2022-11-29T03:03:44.040Z,19.31
2022-11-29T03:06:10.966Z,19.31
2022-11-29T03:08:37.867Z,19.31
2022-11-29T03:11:04.769Z,19.31
2022-11-29T03:13:31.692Z,19.25
2022-11-29T03:15:58.653Z,19.25
2022-11-29T03:18:25.641Z,19.25
2022-11-29T03:20:52.549Z,19.25
2022-11-29T03:23:19.440Z,19.19
2022-11-29T03:25:46.363Z,19.19
2022-11-29T03:28:13.280Z,19.19
2022-11-29T03:30:40.253Z,19.19
2022-11-29T03:33:07.209Z,19.19
2022-11-29T03:35:34.145Z,19.13
2022-11-29T03:38:01.074Z,19.13
2022-11-29T03:40:28.008Z,19.13
2022-11-29T03:42:54.961Z,19.13
2022-11-29T03:45:21.869Z,19.13
2022-11-29T03:47:48.779Z,19.06
2022-11-29T03:50:15.706Z,19.06
2022-11-29T03:52:42.633Z,19.06
2022-11-29T03:55:09.567Z,19.06
2022-11-29T03:57:36.457Z,19.00
2022-11-29T04:00:03.392Z,19.00
2022-11-29T04:02:30.331Z,19.00
2022-11-29T04:04:57.294Z,19.00
2022-11-29T04:07:24.258Z,19.00
2022-11-29T04:09:51.213Z,19.00
2022-11-29T04:12:18.131Z,18.94
2022-11-29T04:14:45.284Z,18.94
2022-11-29T04:17:12.354Z,18.94
2022-11-29T04:19:39.264Z,18.94
2022-11-29T04:22:06.210Z,18.94
2022-11-29T04:24:33.109Z,18.94
2022-11-29T04:27:00.003Z,18.94
2022-11-29T04:29:26.971Z,18.94
2022-11-29T04:31:53.875Z,18.94
2022-11-29T04:34:20.798Z,19.19
2022-11-29T04:36:47.722Z,19.19
2022-11-29T04:39:14.629Z,19.25
2022-11-29T04:41:41.530Z,19.25
2022-11-29T04:44:08.454Z,19.19
2022-11-29T04:46:35.396Z,19.13
2022-11-29T04:49:02.335Z,19.13
2022-11-29T04:51:29.234Z,19.06
2022-11-29T04:53:56.138Z,19.06
2022-11-29T04:56:23.078Z,19.06
2022-11-29T04:58:49.994Z,19.06
2022-11-29T05:01:16.964Z,19.06
2022-11-29T05:03:46.675Z,19.63
2022-11-29T05:06:13.859Z,24.56
2022-11-29T05:08:40.776Z,28.56
2022-11-29T05:11:07.703Z,29.63
2022-11-29T05:13:34.618Z,29.69
2022-11-29T05:16:01.559Z,27.69
2022-11-29T05:18:28.512Z,24.75
2022-11-29T05:20:55.425Z,25.00
2022-11-29T05:23:22.313Z,28.44
2022-11-29T05:25:49.240Z,30.44
2022-11-29T05:28:16.156Z,31.25
2022-11-29T05:30:43.086Z,29.81
2022-11-29T05:33:10.100Z,27.00
2022-11-29T05:35:37.015Z,26.88
2022-11-29T05:38:03.927Z,29.69
2022-11-29T05:40:30.867Z,31.31
2022-11-29T05:42:57.785Z,31.81
2022-11-29T05:45:24.709Z,31.00
2022-11-29T05:47:51.658Z,28.56
2022-11-29T05:50:18.569Z,28.50
2022-11-29T05:52:45.495Z,30.69
2022-11-29T05:55:12.422Z,32.00
2022-11-29T05:57:39.334Z,32.19
2022-11-29T06:00:06.227Z,31.63
2022-11-29T06:02:33.216Z,31.63
2022-11-29T06:05:00.175Z,32.25
2022-11-29T06:07:27.103Z,32.94
2022-11-29T06:09:54.373Z,33.25
2022-11-29T06:12:23.071Z,33.38
2022-11-29T06:14:49.966Z,33.13
2022-11-29T06:17:16.870Z,31.13
2022-11-29T06:19:43.804Z,30.00
2022-11-29T06:22:10.718Z,31.06
2022-11-29T06:24:37.620Z,32.31
2022-11-29T06:27:04.582Z,33.00
2022-11-29T06:29:31.522Z,33.06
2022-11-29T06:31:58.457Z,32.50
2022-11-29T06:34:30.555Z,32.19
2022-11-29T06:36:57.850Z,32.69
2022-11-29T06:39:24.780Z,33.19
2022-11-29T06:41:51.677Z,33.50
2022-11-29T06:44:18.575Z,33.75
2022-11-29T06:46:45.600Z,33.94
2022-11-29T06:49:12.602Z,34.13
2022-11-29T06:51:39.528Z,34.38
2022-11-29T06:54:06.439Z,34.56
2022-11-29T06:56:33.350Z,34.69
2022-11-29T06:59:00.262Z,34.88
2022-11-29T07:01:27.299Z,35.00
2022-11-29T07:03:54.258Z,35.00
2022-11-29T07:06:21.155Z,35.00
2022-11-29T07:08:48.055Z,35.00
2022-11-29T07:11:14.962Z,34.94
2022-11-29T07:13:41.880Z,35.00
2022-11-29T07:16:08.856Z,35.00
2022-11-29T07:18:35.839Z,35.06
2022-11-29T07:21:02.803Z,35.06
2022-11-29T07:23:29.734Z,35.13
2022-11-29T07:25:56.635Z,34.94
2022-11-29T07:28:23.551Z,34.88
2022-11-29T07:30:50.489Z,34.88
2022-11-29T07:33:17.394Z,34.88
2022-11-29T07:35:44.309Z,34.88
2022-11-29T07:38:11.254Z,34.88
2022-11-29T07:40:38.183Z,34.81
2022-11-29T07:43:05.142Z,34.69
2022-11-29T07:45:32.052Z,34.50
2022-11-29T07:47:59.014Z,34.38
2022-11-29T07:50:26.005Z,34.25
2022-11-29T07:52:53.028Z,34.06
2022-11-29T07:55:19.927Z,33.56
2022-11-29T07:57:46.891Z,32.75
2022-11-29T08:00:13.799Z,32.75
2022-11-29T08:02:40.780Z,33.25
2022-11-29T08:05:07.762Z,33.50
2022-11-29T08:07:34.743Z,33.63
2022-11-29T08:10:01.742Z,33.81
2022-11-29T08:12:28.629Z,33.94
2022-11-29T08:14:55.539Z,34.06
2022-11-29T08:17:22.446Z,34.13
2022-11-29T08:19:49.372Z,34.19
2022-11-29T08:22:16.304Z,34.25
2022-11-29T08:24:43.553Z,34.31
2022-11-29T08:27:10.717Z,34.38
2022-11-29T08:29:37.634Z,34.44
2022-11-29T08:32:04.580Z,34.50
2022-11-29T08:34:31.513Z,34.63
2022-11-29T08:36:58.427Z,34.69
2022-11-29T08:39:25.352Z,34.69
2022-11-29T08:41:52.247Z,34.75
2022-11-29T08:44:19.177Z,34.75
2022-11-29T08:46:46.090Z,34.81
2022-11-29T08:49:12.998Z,34.94
2022-11-29T08:51:39.903Z,35.00
2022-11-29T08:54:06.814Z,35.06
2022-11-29T08:57:16.693Z,35.06
2022-11-29T08:59:20.689Z,35.13
2022-11-29T09:01:47.638Z,35.13
2022-11-29T09:04:14.579Z,35.19
2022-11-29T09:06:41.496Z,35.19
2022-11-29T09:09:08.405Z,35.19
2022-11-29T09:11:35.377Z,35.13
2022-11-29T09:14:02.324Z,35.13
2022-11-29T09:16:29.296Z,35.00
2022-11-29T09:18:56.269Z,34.88
2022-11-29T09:21:23.236Z,34.75
2022-11-29T09:23:50.151Z,34.63
2022-11-29T09:26:17.055Z,34.44
2022-11-29T09:28:43.967Z,34.19
2022-11-29T09:31:12.071Z,33.50
2022-11-29T09:33:38.998Z,33.06
2022-11-29T09:36:05.915Z,33.38
2022-11-29T09:38:32.825Z,33.63
2022-11-29T09:40:59.741Z,33.63
2022-11-29T09:43:26.642Z,33.50
2022-11-29T09:45:53.589Z,33.38
2022-11-29T09:48:20.553Z,33.31
2022-11-29T09:50:47.482Z,33.19
2022-11-29T09:53:14.382Z,33.06
2022-11-29T09:55:41.312Z,33.06
2022-11-29T09:58:08.259Z,33.13
2022-11-29T10:00:35.220Z,33.56
2022-11-29T10:03:02.155Z,33.81
2022-11-29T10:05:29.058Z,33.94
2022-11-29T10:07:56.005Z,33.88
2022-11-29T10:10:23.016Z,33.63
2022-11-29T10:12:49.937Z,33.38
2022-11-29T10:15:16.865Z,33.75
2022-11-29T10:17:43.793Z,33.81
2022-11-29T10:20:10.710Z,33.25
2022-11-29T10:22:37.672Z,32.94
2022-11-29T10:25:04.586Z,33.31
2022-11-29T10:27:31.523Z,33.75
2022-11-29T10:29:58.454Z,34.00
2022-11-29T10:32:25.382Z,34.19
2022-11-29T10:34:52.292Z,34.38
2022-11-29T10:37:19.226Z,34.56
2022-11-29T10:39:46.118Z,34.75
2022-11-29T10:42:13.039Z,34.88
2022-11-29T10:44:39.945Z,35.06
2022-11-29T10:47:10.966Z,35.19
2022-11-29T10:49:38.156Z,35.31
2022-11-29T10:52:05.091Z,35.31
2022-11-29T10:54:32.013Z,35.31
2022-11-29T10:56:58.905Z,35.19
2022-11-29T10:59:25.823Z,35.19
2022-11-29T11:01:52.778Z,35.25
2022-11-29T11:04:19.747Z,35.25
2022-11-29T11:06:46.659Z,35.13
2022-11-29T11:09:13.575Z,35.06
2022-11-29T11:11:40.492Z,35.00
2022-11-29T11:14:07.404Z,35.00
2022-11-29T11:16:37.330Z,35.06
2022-11-29T11:19:04.611Z,35.13
2022-11-29T11:21:31.559Z,35.13
2022-11-29T11:23:58.508Z,35.19
2022-11-29T11:26:25.466Z,35.19
2022-11-29T11:28:52.374Z,35.19
2022-11-29T11:31:19.311Z,35.13
2022-11-29T11:33:46.256Z,34.94
2022-11-29T11:36:13.450Z,34.81
2022-11-29T11:38:40.398Z,34.69
2022-11-29T11:41:07.397Z,34.56
2022-11-29T11:43:34.315Z,34.38
2022-11-29T11:46:01.325Z,33.81
2022-11-29T11:48:28.317Z,33.50
2022-11-29T11:50:55.233Z,33.69
2022-11-29T11:53:22.146Z,33.88
2022-11-29T11:55:49.066Z,33.94
2022-11-29T11:58:15.985Z,34.00
2022-11-29T12:03:29.910Z,34.13
2022-11-29T12:05:56.890Z,34.19
2022-11-29T12:08:23.836Z,34.25
2022-11-29T12:10:50.779Z,34.31
2022-11-29T12:13:17.699Z,34.38
2022-11-29T12:15:44.642Z,34.38
2022-11-29T12:18:11.576Z,34.31
2022-11-29T12:20:38.483Z,34.19
2022-11-29T12:23:05.403Z,34.06
2022-11-29T12:25:32.315Z,33.94
2022-11-29T12:27:59.252Z,33.88
2022-11-29T12:30:26.200Z,33.88
2022-11-29T12:32:53.129Z,33.69
2022-11-29T12:35:20.043Z,33.38
2022-11-29T12:37:46.942Z,33.50
2022-11-29T12:40:13.859Z,33.69
2022-11-29T12:42:40.782Z,33.81
2022-11-29T12:45:07.785Z,33.94
2022-11-29T12:47:36.109Z,34.06
2022-11-29T12:50:03.607Z,34.19
2022-11-29T12:52:30.537Z,34.31
2022-11-29T12:54:57.467Z,34.38
2022-11-29T12:57:24.382Z,34.44
2022-11-29T12:59:51.299Z,34.50
2022-11-29T13:02:18.202Z,34.56
2022-11-29T13:04:45.470Z,34.69
2022-11-29T13:07:12.698Z,34.75
2022-11-29T13:09:39.606Z,34.88
2022-11-29T13:12:06.505Z,34.94
2022-11-29T13:14:48.705Z,35.00
2022-11-29T13:17:15.652Z,35.06
2022-11-29T13:19:42.635Z,35.19
2022-11-29T13:22:09.543Z,35.25
2022-11-29T13:24:41.238Z,35.25
2022-11-29T13:27:09.746Z,35.19
2022-11-29T13:29:36.698Z,35.06
2022-11-29T13:32:03.617Z,34.88
2022-11-29T13:34:30.528Z,34.75
2022-11-29T13:36:57.451Z,34.63
2022-11-29T13:39:24.393Z,34.50
2022-11-29T13:41:51.326Z,34.25
2022-11-29T13:44:18.271Z,33.69
2022-11-29T13:46:45.233Z,33.44
2022-11-29T13:49:12.179Z,33.63
2022-11-29T13:51:39.503Z,33.81
2022-11-29T13:54:06.412Z,33.94
2022-11-29T13:56:33.432Z,34.00
2022-11-29T13:59:00.354Z,34.06
2022-11-29T14:01:27.333Z,34.13
2022-11-29T14:03:54.299Z,34.13
2022-11-29T14:06:21.321Z,34.06
2022-11-29T14:09:17.259Z,34.00
2022-11-29T14:11:35.175Z,33.94
2022-11-29T14:14:02.080Z,33.94
2022-11-29T14:16:29.024Z,33.88
2022-11-29T14:18:55.978Z,33.88
2022-11-29T14:21:22.886Z,33.63
2022-11-29T14:23:49.824Z,33.38
2022-11-29T14:26:16.742Z,33.63
2022-11-29T14:28:43.696Z,33.81
2022-11-29T14:31:10.724Z,33.94
2022-11-29T14:33:37.688Z,34.06
2022-11-29T14:36:04.604Z,34.13
2022-11-29T14:38:31.540Z,34.25
2022-11-29T14:40:58.483Z,34.31
2022-11-29T14:43:25.386Z,34.38
2022-11-29T14:45:52.335Z,34.50
2022-11-29T14:48:19.247Z,34.56
2022-11-29T14:50:46.151Z,34.63
2022-11-29T14:53:13.071Z,34.69
2022-11-29T14:55:39.962Z,34.75
2022-11-29T14:58:06.885Z,34.81
2022-11-29T15:00:33.822Z,34.75
2022-11-29T15:03:00.740Z,34.69
2022-11-29T15:05:27.694Z,34.56
2022-11-29T15:07:54.693Z,34.44
2022-11-29T15:10:21.658Z,34.31
2022-11-29T15:12:48.630Z,34.13
2022-11-29T15:15:15.606Z,34.00
2022-11-29T15:17:42.523Z,33.56
2022-11-29T15:20:09.444Z,33.50
2022-11-29T15:22:36.375Z,33.75
2022-11-29T15:25:03.296Z,33.88
2022-11-29T15:27:30.229Z,33.88
2022-11-29T15:29:57.135Z,33.94
2022-11-29T15:32:24.055Z,34.00
2022-11-29T15:34:50.965Z,34.06
2022-11-29T15:37:17.920Z,34.19
2022-11-29T15:39:44.855Z,34.19
2022-11-29T15:42:11.758Z,34.25
2022-11-29T15:44:38.818Z,34.19
2022-11-29T15:47:05.737Z,34.13
2022-11-29T15:49:32.639Z,34.00
2022-11-29T15:51:59.544Z,34.00
2022-11-29T15:54:26.447Z,34.00
2022-11-29T15:56:53.382Z,33.94
2022-11-29T15:59:20.294Z,33.81
2022-11-29T16:01:47.217Z,33.50
2022-11-29T16:04:14.162Z,33.69
2022-11-29T16:06:41.106Z,33.81
2022-11-29T16:09:08.026Z,33.88
2022-11-29T16:11:34.930Z,34.00
2022-11-29T16:14:01.830Z,34.06
2022-11-29T16:16:28.823Z,34.13
2022-11-29T16:18:55.810Z,34.19
2022-11-29T16:21:22.795Z,34.25
2022-11-29T16:23:49.719Z,34.31
2022-11-29T16:26:16.679Z,34.38
2022-11-29T16:28:43.585Z,34.50
2022-11-29T16:31:13.620Z,34.56
2022-11-29T16:33:44.555Z,34.63
2022-11-29T16:36:11.458Z,34.75
2022-11-29T16:38:38.373Z,34.81
2022-11-29T16:41:05.301Z,34.88
2022-11-29T16:43:32.213Z,34.94
2022-11-29T16:45:59.152Z,35.00
2022-11-29T16:48:26.086Z,35.00
2022-11-29T16:50:52.985Z,34.94
2022-11-29T16:53:19.891Z,34.81
2022-11-29T16:55:46.807Z,34.69
2022-11-29T16:58:13.726Z,34.50
2022-11-29T17:00:40.673Z,34.38
2022-11-29T17:03:07.559Z,34.25
2022-11-29T17:05:34.476Z,34.13
2022-11-29T17:08:01.443Z,34.13
2022-11-29T17:10:28.376Z,34.13
2022-11-29T17:12:55.296Z,34.13
2022-11-29T17:15:22.223Z,34.19
2022-11-29T17:17:49.150Z,34.25
2022-11-29T17:20:16.063Z,34.31
2022-11-29T17:22:43.015Z,34.38
2022-11-29T17:25:09.937Z,34.44
2022-11-29T17:27:36.851Z,34.50
2022-11-29T17:30:03.779Z,34.50
2022-11-29T17:32:30.763Z,34.44
2022-11-29T17:34:57.661Z,34.38
2022-11-29T17:37:24.571Z,34.25
2022-11-29T17:39:51.476Z,34.06
2022-11-29T17:42:18.509Z,34.00
2022-11-29T17:44:45.401Z,34.00
2022-11-29T17:47:12.334Z,34.06
2022-11-29T17:49:39.230Z,34.19
2022-11-29T17:52:06.158Z,34.25
2022-11-29T17:54:33.124Z,34.31
2022-11-29T17:57:00.068Z,34.31
2022-11-29T17:59:27.013Z,34.44
2022-11-29T18:01:53.994Z,34.56
2022-11-29T18:04:20.982Z,34.63
2022-11-29T18:06:47.869Z,34.75
2022-11-29T18:09:14.829Z,34.81
2022-11-29T18:11:47.695Z,34.88
2022-11-29T18:14:15.868Z,35.00
2022-11-29T18:16:42.882Z,35.06
2022-11-29T18:19:09.875Z,35.13
2022-11-29T18:21:36.790Z,35.19
2022-11-29T18:24:03.711Z,35.31
2022-11-29T18:26:30.622Z,35.38
2022-11-29T18:28:57.554Z,35.25
2022-11-29T18:31:24.485Z,35.25
2022-11-29T18:33:51.386Z,35.25
2022-11-29T18:36:18.318Z,35.25
2022-11-29T18:38:45.234Z,35.13
2022-11-29T18:41:12.145Z,35.00
2022-11-29T18:43:40.239Z,34.88
2022-11-29T18:46:07.265Z,34.69
2022-11-29T18:48:34.211Z,34.50
2022-11-29T18:51:01.112Z,34.38
2022-11-29T18:53:28.044Z,34.19
2022-11-29T18:55:54.982Z,34.19
2022-11-29T18:58:21.970Z,34.25
2022-11-29T19:00:48.888Z,34.25
2022-11-29T19:03:15.807Z,34.25
2022-11-29T19:05:42.708Z,34.31
2022-11-29T19:08:09.608Z,34.38
2022-11-29T19:10:36.515Z,34.44
2022-11-29T19:13:03.434Z,34.44
2022-11-29T19:15:30.338Z,34.50
2022-11-29T19:17:57.262Z,34.56
2022-11-29T19:20:24.198Z,34.63
2022-11-29T19:22:53.811Z,34.63
2022-11-29T19:25:23.034Z,34.69
2022-11-29T19:27:49.958Z,34.75
2022-11-29T19:30:17.072Z,34.81
2022-11-29T19:32:44.053Z,34.75
2022-11-29T19:35:10.953Z,34.69
2022-11-29T19:37:37.885Z,34.56
2022-11-29T19:40:04.802Z,34.38
2022-11-29T19:42:31.694Z,34.31
2022-11-29T19:45:16.635Z,34.19
2022-11-29T19:47:44.520Z,33.88
2022-11-29T19:50:11.438Z,33.19
2022-11-29T19:52:38.339Z,33.19
2022-11-29T19:55:05.261Z,33.63
2022-11-29T19:57:32.175Z,33.88
2022-11-29T19:59:59.098Z,34.06
2022-11-29T20:02:26.090Z,34.13
2022-11-29T20:04:53.092Z,34.06
2022-11-29T20:07:20.066Z,33.88
2022-11-29T20:09:47.279Z,33.69
2022-11-29T20:12:14.314Z,33.44
2022-11-29T20:14:41.220Z,33.19
2022-11-29T20:17:08.148Z,32.94
2022-11-29T20:19:35.157Z,32.75
2022-11-29T20:22:02.145Z,32.50
2022-11-29T20:24:31.257Z,32.31
2022-11-29T20:27:01.818Z,32.06
2022-11-29T20:29:28.723Z,31.81
2022-11-29T20:31:55.622Z,31.50
2022-11-29T20:34:22.530Z,31.25
2022-11-29T20:36:49.425Z,31.00
2022-11-29T20:39:16.342Z,30.75
2022-11-29T20:41:43.285Z,30.50
2022-11-29T20:44:10.201Z,30.25
2022-11-29T20:46:37.198Z,30.06
2022-11-29T20:49:06.511Z,29.81
2022-11-29T20:51:33.835Z,29.63
2022-11-29T20:54:00.742Z,29.44
2022-11-29T20:56:27.664Z,29.25
2022-11-29T20:58:54.579Z,29.13
2022-11-29T21:01:21.565Z,28.94
2022-11-29T21:03:48.529Z,28.75
2022-11-29T21:06:15.478Z,28.63
2022-11-29T21:08:42.405Z,28.44
2022-11-29T21:11:09.328Z,28.25
2022-11-29T21:13:36.258Z,28.13
2022-11-29T21:16:03.183Z,27.94
2022-11-29T21:18:30.157Z,27.81
2022-11-29T21:20:57.186Z,27.56
2022-11-29T21:23:24.101Z,27.38
2022-11-29T21:25:51.005Z,27.19
2022-11-29T21:28:17.916Z,27.06
2022-11-29T21:30:44.835Z,26.88
2022-11-29T21:33:11.765Z,26.69
2022-11-29T21:35:38.690Z,26.56
2022-11-29T21:38:05.627Z,26.38
2022-11-29T21:40:32.536Z,26.25
2022-11-29T21:42:59.483Z,26.13
2022-11-29T21:45:26.441Z,25.94
2022-11-29T21:47:53.384Z,25.81
2022-11-29T21:50:20.308Z,25.69
2022-11-29T21:52:47.222Z,25.56
2022-11-29T21:55:14.169Z,25.56
2022-11-29T21:57:41.079Z,25.56
2022-11-29T22:00:08.011Z,25.56
2022-11-29T22:02:35.069Z,25.56
2022-11-29T22:05:02.070Z,25.50
2022-11-29T22:07:29.002Z,25.44
2022-11-29T22:09:55.962Z,25.19
2022-11-29T22:12:38.015Z,24.88
2022-11-29T22:15:04.996Z,24.44
2022-11-29T22:17:31.916Z,23.94
2022-11-29T22:19:58.815Z,23.50
2022-11-29T22:22:28.130Z,23.13
2022-11-29T22:24:55.332Z,22.75
2022-11-29T22:27:22.286Z,22.44
2022-11-29T22:29:49.221Z,22.25
2022-11-29T22:32:16.148Z,22.06
2022-11-29T22:34:43.125Z,21.94
2022-11-29T22:37:10.097Z,21.81
2022-11-29T22:39:37.014Z,21.75
2022-11-29T22:42:03.936Z,21.69
2022-11-29T22:44:30.988Z,21.63
2022-11-29T22:46:57.950Z,21.56
2022-11-29T22:49:24.897Z,21.50
2022-11-29T22:51:51.801Z,21.50
2022-11-29T22:54:18.711Z,21.44
2022-11-29T22:56:45.678Z,21.44
2022-11-29T22:59:12.626Z,21.38
2022-11-29T23:01:39.562Z,21.38
2022-11-29T23:04:06.477Z,21.38
2022-11-29T23:06:33.426Z,21.38
2022-11-29T23:09:00.351Z,21.31
2022-11-29T23:11:27.362Z,21.31
2022-11-29T23:13:54.282Z,21.31
2022-11-29T23:16:21.252Z,21.25
2022-11-29T23:18:48.241Z,21.25
2022-11-29T23:21:15.169Z,21.19
2022-11-29T23:23:42.078Z,21.19
2022-11-29T23:26:08.987Z,21.13
2022-11-29T23:28:35.901Z,21.13
2022-11-29T23:31:02.815Z,21.13
2022-11-29T23:33:29.739Z,21.06
2022-11-29T23:35:56.676Z,21.06
2022-11-29T23:38:24.014Z,21.00
2022-11-29T23:40:50.914Z,21.00
2022-11-29T23:43:17.857Z,20.94
2022-11-29T23:45:44.783Z,20.94
2022-11-29T23:48:11.742Z,20.94
2022-11-29T23:50:38.651Z,20.88
2022-11-29T23:53:05.583Z,20.88
2022-11-29T23:55:32.526Z,20.81
2022-11-29T23:57:59.439Z,20.81
